Kearneysville, WV

8:55 PM EDT on March 27, 2015 (GMT -0400)
WVU-KTFREC | | Change Station
CLOSE
Current Station
Personal Weather Station
Location: Kearneysville, WV
Elevation: 512 ft
Nearby Weather Stations

Elev 512 ft 39.40 °N, 77.90 °W | Updated 5 minutes ago

Overcast
Overcast
41.8 °F
Feels Like 42 °F
N
2.0
Wind Variable Wind from NNW
Gusts 5.0 mph

Today
High -- | Low -- °F
--% Chance of Precip.
Yesterday
High -- | Low -- °F
Precip. -- in
7:04 AM 7:30 PM
First Quarter, 57% visible
Pressure 29.84 in
Visibility 10.0 miles
Clouds Overcast 6000 ft
Windchill 42 °F
Dew Point 27 °F
Humidity 55%
Rainfall 0.14 in
Snow Depth Not available.
UV 0.0 out of 12
Pollen 4.60 out of 12
Air Quality Not available.
Flu Activity Not available.
METAR KMRB 272353Z 30010KT 10SM OVC060 06/M05 A2983 RMK AO2 SLP104 T00611050 10100 20061 53021

More Conditions Fewer Conditions

Pressure 29.84 in
Visibility 10.0 miles
Clouds Overcast 6000 ft
Windchill 42 °F
Dew Point 27 °F
Humidity 55%
Rainfall 0.14 in
Snow Depth Not available.
UV 0.0 out of 12
Pollen 4.60 out of 12
Air Quality Not available.
Flu Activity Not available.
METAR KMRB 272353Z 30010KT 10SM OVC060 06/M05 A2983 RMK AO2 SLP104 T00611050 10100 20061 53021

More Conditions Fewer Conditions

10-Day Weather Forecast

Almanac

Astronomy

Mar. 27, 2015 Rise Set
Actual Time
Civil Twilight
Nautical Twilight
Astronomical Twilight
Moon
Length of Visible Light
Length of Day
Tomorrow will be .
, % of the Moon is Illuminated

Today's Extremes

State Highs State Lows

Community

WunderPhotos

Upload Photos

1,808,894 photos uploaded!

WunderBlogs® & News

Nearby

Air Quality

  Air Quality AQ Index Pollutant
Not available.

Snow Depth

Station Depth Elevation

Earthquake Activity

City Distance Mag. Time & Date
Minimum magnitude displayed is 2.5.

Coastal Water Temperatures

Place Temperature

Stations

Nearby Weather Stations

Station Location Temp. Windchill Dew Point Humidity Wind Precip. Elev Updated Type